sensor_id;sensor_type;location;lat;lon;timestamp;temperature;humidity
62575;DHT22;70119;45.638;11.714;2023-10-09T00:01:50;29.80;42.20
62575;DHT22;70119;45.638;11.714;2023-10-09T00:04:17;29.80;42.20
62575;DHT22;70119;45.638;11.714;2023-10-09T00:06:43;29.80;42.20
62575;DHT22;70119;45.638;11.714;2023-10-09T00:09:10;29.80;42.20
62575;DHT22;70119;45.638;11.714;2023-10-09T00:11:56;29.80;42.10
62575;DHT22;70119;45.638;11.714;2023-10-09T00:14:27;29.90;41.90
62575;DHT22;70119;45.638;11.714;2023-10-09T00:16:56;29.90;41.90
62575;DHT22;70119;45.638;11.714;2023-10-09T00:19:51;29.90;42.10
62575;DHT22;70119;45.638;11.714;2023-10-09T00:22:18;29.80;42.10
62575;DHT22;70119;45.638;11.714;2023-10-09T00:24:50;29.80;42.20
62575;DHT22;70119;45.638;11.714;2023-10-09T00:27:16;29.80;42.20
62575;DHT22;70119;45.638;11.714;2023-10-09T00:29:46;29.80;42.20
62575;DHT22;70119;45.638;11.714;2023-10-09T00:32:15;29.80;42.10
62575;DHT22;70119;45.638;11.714;2023-10-09T00:34:58;29.80;42.10
62575;DHT22;70119;45.638;11.714;2023-10-09T00:37:44;29.90;41.90
62575;DHT22;70119;45.638;11.714;2023-10-09T00:40:10;29.90;42.00
62575;DHT22;70119;45.638;11.714;2023-10-09T00:42:38;29.90;41.90
62575;DHT22;70119;45.638;11.714;2023-10-09T00:45:05;29.90;41.80
62575;DHT22;70119;45.638;11.714;2023-10-09T00:47:34;29.90;41.90
62575;DHT22;70119;45.638;11.714;2023-10-09T00:50:02;29.90;41.90
62575;DHT22;70119;45.638;11.714;2023-10-09T00:52:41;29.80;42.00
62575;DHT22;70119;45.638;11.714;2023-10-09T00:55:18;29.80;42.00
62575;DHT22;70119;45.638;11.714;2023-10-09T00:58:15;29.80;42.00
62575;DHT22;70119;45.638;11.714;2023-10-09T01:00:49;29.80;41.90
62575;DHT22;70119;45.638;11.714;2023-10-09T01:03:19;29.80;41.90
62575;DHT22;70119;45.638;11.714;2023-10-09T01:05:48;29.80;41.80
62575;DHT22;70119;45.638;11.714;2023-10-09T01:08:21;29.80;41.80
62575;DHT22;70119;45.638;11.714;2023-10-09T01:10:58;29.80;41.70
62575;DHT22;70119;45.638;11.714;2023-10-09T01:13:41;29.80;41.80
62575;DHT22;70119;45.638;11.714;2023-10-09T01:16:22;29.80;41.80
62575;DHT22;70119;45.638;11.714;2023-10-09T01:18:51;29.70;41.70
62575;DHT22;70119;45.638;11.714;2023-10-09T01:21:20;29.80;41.70
62575;DHT22;70119;45.638;11.714;2023-10-09T01:23:53;29.80;41.60
62575;DHT22;70119;45.638;11.714;2023-10-09T01:26:36;29.80;41.60
62575;DHT22;70119;45.638;11.714;2023-10-09T01:29:08;29.80;41.60
62575;DHT22;70119;45.638;11.714;2023-10-09T01:31:46;29.70;41.60
62575;DHT22;70119;45.638;11.714;2023-10-09T01:34:35;29.80;41.70
62575;DHT22;70119;45.638;11.714;2023-10-09T01:37:07;29.80;41.40
62575;DHT22;70119;45.638;11.714;2023-10-09T01:39:52;29.80;41.60
62575;DHT22;70119;45.638;11.714;2023-10-09T01:42:19;29.70;41.80
62575;DHT22;70119;45.638;11.714;2023-10-09T01:44:57;29.60;41.70
62575;DHT22;70119;45.638;11.714;2023-10-09T01:47:42;29.70;41.50
62575;DHT22;70119;45.638;11.714;2023-10-09T01:50:17;29.70;41.50
62575;DHT22;70119;45.638;11.714;2023-10-09T01:53:01;29.70;41.60
62575;DHT22;70119;45.638;11.714;2023-10-09T01:55:29;29.70;41.60
62575;DHT22;70119;45.638;11.714;2023-10-09T01:58:01;29.70;41.60
62575;DHT22;70119;45.638;11.714;2023-10-09T02:00:46;29.70;41.60
62575;DHT22;70119;45.638;11.714;2023-10-09T02:03:16;29.70;41.50
62575;DHT22;70119;45.638;11.714;2023-10-09T02:05:43;29.70;41.50
62575;DHT22;70119;45.638;11.714;2023-10-09T02:08:09;29.70;41.50
62575;DHT22;70119;45.638;11.714;2023-10-09T02:10:35;29.70;41.50
62575;DHT22;70119;45.638;11.714;2023-10-09T02:13:05;29.70;41.50
62575;DHT22;70119;45.638;11.714;2023-10-09T02:15:39;29.60;41.50
62575;DHT22;70119;45.638;11.714;2023-10-09T02:18:15;29.60;41.50
62575;DHT22;70119;45.638;11.714;2023-10-09T02:21:05;29.60;41.50
62575;DHT22;70119;45.638;11.714;2023-10-09T02:23:32;29.60;41.40
62575;DHT22;70119;45.638;11.714;2023-10-09T02:26:11;29.60;41.70
62575;DHT22;70119;45.638;11.714;2023-10-09T02:28:58;29.60;41.70
62575;DHT22;70119;45.638;11.714;2023-10-09T02:31:25;29.50;41.70
62575;DHT22;70119;45.638;11.714;2023-10-09T02:34:01;29.50;41.70
62575;DHT22;70119;45.638;11.714;2023-10-09T02:36:34;29.60;41.60
62575;DHT22;70119;45.638;11.714;2023-10-09T02:39:15;29.50;41.70
62575;DHT22;70119;45.638;11.714;2023-10-09T02:41:58;29.50;41.70
62575;DHT22;70119;45.638;11.714;2023-10-09T02:44:32;29.50;41.50
62575;DHT22;70119;45.638;11.714;2023-10-09T02:47:05;29.50;41.70
62575;DHT22;70119;45.638;11.714;2023-10-09T02:49:31;29.50;41.60
62575;DHT22;70119;45.638;11.714;2023-10-09T02:51:57;29.50;41.60
62575;DHT22;70119;45.638;11.714;2023-10-09T02:54:23;29.50;41.60
62575;DHT22;70119;45.638;11.714;2023-10-09T02:56:51;29.50;41.60
62575;DHT22;70119;45.638;11.714;2023-10-09T02:59:43;29.50;41.60
62575;DHT22;70119;45.638;11.714;2023-10-09T03:02:10;29.50;41.60
62575;DHT22;70119;45.638;11.714;2023-10-09T03:04:36;29.40;41.60
62575;DHT22;70119;45.638;11.714;2023-10-09T03:07:04;29.50;41.60
62575;DHT22;70119;45.638;11.714;2023-10-09T03:09:31;29.50;41.60
62575;DHT22;70119;45.638;11.714;2023-10-09T03:11:59;29.50;41.60
62575;DHT22;70119;45.638;11.714;2023-10-09T03:14:28;29.50;41.60
62575;DHT22;70119;45.638;11.714;2023-10-09T03:16:55;29.50;41.60
62575;DHT22;70119;45.638;11.714;2023-10-09T03:19:32;29.50;41.60
62575;DHT22;70119;45.638;11.714;2023-10-09T03:22:11;29.50;41.60
62575;DHT22;70119;45.638;11.714;2023-10-09T03:24:38;29.50;41.60
62575;DHT22;70119;45.638;11.714;2023-10-09T03:27:07;29.40;41.70
62575;DHT22;70119;45.638;11.714;2023-10-09T03:29:33;29.40;41.70
62575;DHT22;70119;45.638;11.714;2023-10-09T03:31:59;29.40;41.60
62575;DHT22;70119;45.638;11.714;2023-10-09T03:34:25;29.40;41.70
62575;DHT22;70119;45.638;11.714;2023-10-09T03:36:52;29.40;41.70
62575;DHT22;70119;45.638;11.714;2023-10-09T03:39:30;29.40;41.60
62575;DHT22;70119;45.638;11.714;2023-10-09T03:42:00;29.40;41.70
62575;DHT22;70119;45.638;11.714;2023-10-09T03:44:30;29.40;41.70
62575;DHT22;70119;45.638;11.714;2023-10-09T03:46:59;29.40;41.70
62575;DHT22;70119;45.638;11.714;2023-10-09T03:49:25;29.30;41.60
62575;DHT22;70119;45.638;11.714;2023-10-09T03:51:52;29.40;41.70
62575;DHT22;70119;45.638;11.714;2023-10-09T03:54:18;29.40;41.70
62575;DHT22;70119;45.638;11.714;2023-10-09T03:56:48;29.40;41.70
62575;DHT22;70119;45.638;11.714;2023-10-09T03:59:24;29.40;41.70
62575;DHT22;70119;45.638;11.714;2023-10-09T04:01:56;29.40;41.60
62575;DHT22;70119;45.638;11.714;2023-10-09T04:04:24;29.30;41.70
62575;DHT22;70119;45.638;11.714;2023-10-09T04:06:50;29.30;41.70
62575;DHT22;70119;45.638;11.714;2023-10-09T04:09:19;29.30;41.70
62575;DHT22;70119;45.638;11.714;2023-10-09T04:11:50;29.30;41.80
62575;DHT22;70119;45.638;11.714;2023-10-09T04:14:39;29.30;41.80
62575;DHT22;70119;45.638;11.714;2023-10-09T04:17:23;29.30;41.70
62575;DHT22;70119;45.638;11.714;2023-10-09T04:19:55;29.30;41.80
62575;DHT22;70119;45.638;11.714;2023-10-09T04:22:40;29.30;41.70
62575;DHT22;70119;45.638;11.714;2023-10-09T04:25:26;29.30;41.60
62575;DHT22;70119;45.638;11.714;2023-10-09T04:27:58;29.20;41.60
62575;DHT22;70119;45.638;11.714;2023-10-09T04:30:43;29.30;41.70
62575;DHT22;70119;45.638;11.714;2023-10-09T04:33:09;29.20;41.80
62575;DHT22;70119;45.638;11.714;2023-10-09T04:36:14;29.20;41.70
62575;DHT22;70119;45.638;11.714;2023-10-09T04:38:52;29.20;41.70
62575;DHT22;70119;45.638;11.714;2023-10-09T04:41:42;29.20;41.80
62575;DHT22;70119;45.638;11.714;2023-10-09T04:44:08;29.10;41.80
62575;DHT22;70119;45.638;11.714;2023-10-09T04:46:50;29.20;41.80
62575;DHT22;70119;45.638;11.714;2023-10-09T04:49:36;29.20;41.80
62575;DHT22;70119;45.638;11.714;2023-10-09T04:52:15;29.20;41.80
62575;DHT22;70119;45.638;11.714;2023-10-09T04:55:04;29.10;41.90
62575;DHT22;70119;45.638;11.714;2023-10-09T04:57:44;29.10;41.90
62575;DHT22;70119;45.638;11.714;2023-10-09T05:00:15;29.10;41.90
62575;DHT22;70119;45.638;11.714;2023-10-09T05:02:54;29.10;41.90
62575;DHT22;70119;45.638;11.714;2023-10-09T05:05:26;29.10;41.90
62575;DHT22;70119;45.638;11.714;2023-10-09T05:08:08;29.10;41.90
62575;DHT22;70119;45.638;11.714;2023-10-09T05:11:02;29.10;41.90
62575;DHT22;70119;45.638;11.714;2023-10-09T05:13:30;29.10;41.90
62575;DHT22;70119;45.638;11.714;2023-10-09T05:16:23;29.10;41.90
62575;DHT22;70119;45.638;11.714;2023-10-09T05:18:52;29.10;42.00
62575;DHT22;70119;45.638;11.714;2023-10-09T05:21:25;29.10;41.90
62575;DHT22;70119;45.638;11.714;2023-10-09T05:23:54;29.10;41.90
62575;DHT22;70119;45.638;11.714;2023-10-09T05:26:49;29.10;41.90
62575;DHT22;70119;45.638;11.714;2023-10-09T05:29:20;29.10;42.00
62575;DHT22;70119;45.638;11.714;2023-10-09T05:31:50;29.10;42.00
62575;DHT22;70119;45.638;11.714;2023-10-09T05:34:21;29.10;41.80
62575;DHT22;70119;45.638;11.714;2023-10-09T05:36:49;29.10;42.10
62575;DHT22;70119;45.638;11.714;2023-10-09T05:39:14;29.10;41.90
62575;DHT22;70119;45.638;11.714;2023-10-09T05:41:48;29.10;42.00
62575;DHT22;70119;45.638;11.714;2023-10-09T05:44:25;29.10;42.00
62575;DHT22;70119;45.638;11.714;2023-10-09T05:47:10;29.10;42.00
62575;DHT22;70119;45.638;11.714;2023-10-09T05:49:53;29.10;42.00
62575;DHT22;70119;45.638;11.714;2023-10-09T05:52:42;29.10;42.00
62575;DHT22;70119;45.638;11.714;2023-10-09T05:55:29;29.10;42.00
62575;DHT22;70119;45.638;11.714;2023-10-09T05:58:14;29.10;42.00
62575;DHT22;70119;45.638;11.714;2023-10-09T06:00:58;29.10;42.00
62575;DHT22;70119;45.638;11.714;2023-10-09T06:03:43;29.10;42.00
62575;DHT22;70119;45.638;11.714;2023-10-09T06:06:17;29.10;42.00
62575;DHT22;70119;45.638;11.714;2023-10-09T06:09:05;29.10;42.00
62575;DHT22;70119;45.638;11.714;2023-10-09T06:11:41;29.10;41.90
62575;DHT22;70119;45.638;11.714;2023-10-09T06:14:18;29.10;41.90
62575;DHT22;70119;45.638;11.714;2023-10-09T06:16:52;29.10;41.80
62575;DHT22;70119;45.638;11.714;2023-10-09T06:19:41;29.20;41.80
62575;DHT22;70119;45.638;11.714;2023-10-09T06:22:10;29.20;41.80
62575;DHT22;70119;45.638;11.714;2023-10-09T06:24:55;29.20;41.60
62575;DHT22;70119;45.638;11.714;2023-10-09T06:27:23;29.20;41.60
62575;DHT22;70119;45.638;11.714;2023-10-09T06:29:58;29.20;41.60
62575;DHT22;70119;45.638;11.714;2023-10-09T06:32:43;29.30;41.50
62575;DHT22;70119;45.638;11.714;2023-10-09T06:35:16;29.30;41.60
62575;DHT22;70119;45.638;11.714;2023-10-09T06:37:48;29.20;41.60
62575;DHT22;70119;45.638;11.714;2023-10-09T06:40:29;29.40;41.50
62575;DHT22;70119;45.638;11.714;2023-10-09T06:43:14;29.40;41.40
62575;DHT22;70119;45.638;11.714;2023-10-09T06:45:55;29.40;41.30
62575;DHT22;70119;45.638;11.714;2023-10-09T06:48:43;29.40;41.30
62575;DHT22;70119;45.638;11.714;2023-10-09T06:51:14;29.50;41.30
62575;DHT22;70119;45.638;11.714;2023-10-09T06:53:53;29.60;41.20
62575;DHT22;70119;45.638;11.714;2023-10-09T06:56:26;29.60;41.00
62575;DHT22;70119;45.638;11.714;2023-10-09T06:59:01;29.70;41.00
62575;DHT22;70119;45.638;11.714;2023-10-09T07:01:42;29.70;41.00
62575;DHT22;70119;45.638;11.714;2023-10-09T07:04:34;29.80;40.90
62575;DHT22;70119;45.638;11.714;2023-10-09T07:07:00;29.80;41.00
62575;DHT22;70119;45.638;11.714;2023-10-09T07:09:33;29.80;41.10
62575;DHT22;70119;45.638;11.714;2023-10-09T07:12:11;29.80;41.10
62575;DHT22;70119;45.638;11.714;2023-10-09T07:14:46;29.90;41.00
62575;DHT22;70119;45.638;11.714;2023-10-09T07:17:12;29.90;41.00
62575;DHT22;70119;45.638;11.714;2023-10-09T07:19:48;29.90;41.10
62575;DHT22;70119;45.638;11.714;2023-10-09T07:22:15;29.90;41.10
62575;DHT22;70119;45.638;11.714;2023-10-09T07:24:51;29.90;41.10
62575;DHT22;70119;45.638;11.714;2023-10-09T07:27:25;30.00;41.10
62575;DHT22;70119;45.638;11.714;2023-10-09T07:30:11;30.10;41.00
62575;DHT22;70119;45.638;11.714;2023-10-09T07:33:03;30.10;40.90
62575;DHT22;70119;45.638;11.714;2023-10-09T07:35:36;30.30;40.60
62575;DHT22;70119;45.638;11.714;2023-10-09T07:38:18;30.50;40.40
62575;DHT22;70119;45.638;11.714;2023-10-09T07:41:02;30.70;40.00
62575;DHT22;70119;45.638;11.714;2023-10-09T07:46:05;31.20;39.00
62575;DHT22;70119;45.638;11.714;2023-10-09T07:48:50;31.40;38.60
62575;DHT22;70119;45.638;11.714;2023-10-09T07:51:19;31.60;38.30
62575;DHT22;70119;45.638;11.714;2023-10-09T07:54:01;31.70;38.10
62575;DHT22;70119;45.638;11.714;2023-10-09T07:56:37;31.90;37.90
62575;DHT22;70119;45.638;11.714;2023-10-09T07:59:10;32.00;37.70
62575;DHT22;70119;45.638;11.714;2023-10-09T08:01:40;32.10;37.50
62575;DHT22;70119;45.638;11.714;2023-10-09T08:04:21;32.10;37.30
62575;DHT22;70119;45.638;11.714;2023-10-09T08:07:03;32.20;37.30
62575;DHT22;70119;45.638;11.714;2023-10-09T08:09:33;32.10;37.40
62575;DHT22;70119;45.638;11.714;2023-10-09T08:12:16;32.00;37.50
62575;DHT22;70119;45.638;11.714;2023-10-09T08:15:05;31.80;37.60
62575;DHT22;70119;45.638;11.714;2023-10-09T08:17:58;31.70;37.90
62575;DHT22;70119;45.638;11.714;2023-10-09T08:20:36;31.70;38.00
62575;DHT22;70119;45.638;11.714;2023-10-09T08:23:21;31.60;38.10
62575;DHT22;70119;45.638;11.714;2023-10-09T08:26:05;31.60;38.10
62575;DHT22;70119;45.638;11.714;2023-10-09T08:28:44;31.60;38.30
62575;DHT22;70119;45.638;11.714;2023-10-09T08:31:14;31.50;38.40
62575;DHT22;70119;45.638;11.714;2023-10-09T08:33:59;31.50;38.40
62575;DHT22;70119;45.638;11.714;2023-10-09T08:36:27;31.40;38.50
62575;DHT22;70119;45.638;11.714;2023-10-09T08:39:02;31.40;38.60
62575;DHT22;70119;45.638;11.714;2023-10-09T08:41:42;31.40;38.60
62575;DHT22;70119;45.638;11.714;2023-10-09T08:44:12;31.40;38.60
62575;DHT22;70119;45.638;11.714;2023-10-09T08:46:42;31.30;38.80
62575;DHT22;70119;45.638;11.714;2023-10-09T08:49:10;31.30;38.80
62575;DHT22;70119;45.638;11.714;2023-10-09T08:51:37;31.30;38.80
62575;DHT22;70119;45.638;11.714;2023-10-09T08:54:03;31.30;38.80
62575;DHT22;70119;45.638;11.714;2023-10-09T08:56:30;31.30;38.90
62575;DHT22;70119;45.638;11.714;2023-10-09T08:58:57;31.30;39.00
62575;DHT22;70119;45.638;11.714;2023-10-09T09:01:24;31.30;39.00
62575;DHT22;70119;45.638;11.714;2023-10-09T09:03:51;31.20;39.10
62575;DHT22;70119;45.638;11.714;2023-10-09T09:06:21;31.20;39.10
62575;DHT22;70119;45.638;11.714;2023-10-09T09:08:50;31.20;39.10
62575;DHT22;70119;45.638;11.714;2023-10-09T09:11:20;31.10;39.10
62575;DHT22;70119;45.638;11.714;2023-10-09T09:16:29;31.10;39.20
62575;DHT22;70119;45.638;11.714;2023-10-09T09:21:34;31.10;39.30
62575;DHT22;70119;45.638;11.714;2023-10-09T09:24:07;31.10;39.40
62575;DHT22;70119;45.638;11.714;2023-10-09T09:26:56;31.10;39.50
62575;DHT22;70119;45.638;11.714;2023-10-09T09:32:08;31.10;39.50
62575;DHT22;70119;45.638;11.714;2023-10-09T09:34:49;31.10;39.60
62575;DHT22;70119;45.638;11.714;2023-10-09T09:37:22;31.10;39.70
62575;DHT22;70119;45.638;11.714;2023-10-09T09:39:59;31.10;39.60
62575;DHT22;70119;45.638;11.714;2023-10-09T09:42:44;31.10;39.60
62575;DHT22;70119;45.638;11.714;2023-10-09T09:45:15;31.10;39.70
62575;DHT22;70119;45.638;11.714;2023-10-09T09:47:50;31.10;39.80
62575;DHT22;70119;45.638;11.714;2023-10-09T09:50:18;31.10;39.80
62575;DHT22;70119;45.638;11.714;2023-10-09T09:52:52;31.10;39.90
62575;DHT22;70119;45.638;11.714;2023-10-09T09:55:19;31.10;39.90
62575;DHT22;70119;45.638;11.714;2023-10-09T09:57:48;31.10;39.90
62575;DHT22;70119;45.638;11.714;2023-10-09T10:00:25;31.10;39.90
62575;DHT22;70119;45.638;11.714;2023-10-09T10:05:51;31.10;40.00
62575;DHT22;70119;45.638;11.714;2023-10-09T10:08:20;31.10;40.10
62575;DHT22;70119;45.638;11.714;2023-10-09T10:10:49;31.10;40.10
62575;DHT22;70119;45.638;11.714;2023-10-09T10:13:18;31.10;40.10
62575;DHT22;70119;45.638;11.714;2023-10-09T10:16:10;31.10;40.10
62575;DHT22;70119;45.638;11.714;2023-10-09T10:18:59;31.10;40.00
62575;DHT22;70119;45.638;11.714;2023-10-09T10:21:37;31.10;39.90
62575;DHT22;70119;45.638;11.714;2023-10-09T10:27:17;31.20;39.90
62575;DHT22;70119;45.638;11.714;2023-10-09T10:35:20;31.20;40.00
62575;DHT22;70119;45.638;11.714;2023-10-09T10:38:00;31.20;40.00
62575;DHT22;70119;45.638;11.714;2023-10-09T10:40:40;31.20;40.10
62575;DHT22;70119;45.638;11.714;2023-10-09T10:43:18;31.20;40.10
62575;DHT22;70119;45.638;11.714;2023-10-09T10:48:48;31.10;40.40
62575;DHT22;70119;45.638;11.714;2023-10-09T10:51:15;31.10;40.40
62575;DHT22;70119;45.638;11.714;2023-10-09T10:53:53;31.10;40.40
62575;DHT22;70119;45.638;11.714;2023-10-09T10:56:25;31.10;40.40
62575;DHT22;70119;45.638;11.714;2023-10-09T10:59:03;31.10;40.50
62575;DHT22;70119;45.638;11.714;2023-10-09T11:01:32;31.10;40.40
62575;DHT22;70119;45.638;11.714;2023-10-09T11:04:28;31.10;40.30
62575;DHT22;70119;45.638;11.714;2023-10-09T11:06:58;31.10;40.40
62575;DHT22;70119;45.638;11.714;2023-10-09T11:09:50;31.10;40.40
62575;DHT22;70119;45.638;11.714;2023-10-09T11:12:44;31.10;40.50
62575;DHT22;70119;45.638;11.714;2023-10-09T11:15:31;31.10;40.50
62575;DHT22;70119;45.638;11.714;2023-10-09T11:18:10;31.10;40.60
62575;DHT22;70119;45.638;11.714;2023-10-09T11:20:49;31.10;40.70
62575;DHT22;70119;45.638;11.714;2023-10-09T11:23:28;31.10;40.70
62575;DHT22;70119;45.638;11.714;2023-10-09T11:26:00;31.00;40.80
62575;DHT22;70119;45.638;11.714;2023-10-09T11:32:01;31.00;40.80
62575;DHT22;70119;45.638;11.714;2023-10-09T11:34:29;31.00;40.90
62575;DHT22;70119;45.638;11.714;2023-10-09T11:37:01;31.00;40.90
62575;DHT22;70119;45.638;11.714;2023-10-09T11:39:32;31.10;40.80
62575;DHT22;70119;45.638;11.714;2023-10-09T11:42:08;31.10;40.80
62575;DHT22;70119;45.638;11.714;2023-10-09T11:44:41;31.10;40.80
62575;DHT22;70119;45.638;11.714;2023-10-09T11:47:11;31.10;40.90
62575;DHT22;70119;45.638;11.714;2023-10-09T11:49:57;31.10;40.80
62575;DHT22;70119;45.638;11.714;2023-10-09T11:52:29;31.10;40.90
62575;DHT22;70119;45.638;11.714;2023-10-09T11:54:58;31.10;41.00
62575;DHT22;70119;45.638;11.714;2023-10-09T11:57:25;31.10;41.00
62575;DHT22;70119;45.638;11.714;2023-10-09T12:00:01;31.00;41.00
62575;DHT22;70119;45.638;11.714;2023-10-09T12:02:36;31.10;41.00
62575;DHT22;70119;45.638;11.714;2023-10-09T12:05:10;31.10;41.00
62575;DHT22;70119;45.638;11.714;2023-10-09T12:07:46;31.10;41.00
62575;DHT22;70119;45.638;11.714;2023-10-09T12:10:12;31.00;41.10
62575;DHT22;70119;45.638;11.714;2023-10-09T12:12:43;31.00;41.10
62575;DHT22;70119;45.638;11.714;2023-10-09T12:15:12;31.00;41.10
62575;DHT22;70119;45.638;11.714;2023-10-09T12:17:44;31.00;41.10
62575;DHT22;70119;45.638;11.714;2023-10-09T12:20:16;31.00;41.10
62575;DHT22;70119;45.638;11.714;2023-10-09T12:23:01;31.00;41.10
62575;DHT22;70119;45.638;11.714;2023-10-09T12:25:30;31.00;41.10
62575;DHT22;70119;45.638;11.714;2023-10-09T12:28:02;31.00;41.10
62575;DHT22;70119;45.638;11.714;2023-10-09T12:30:33;31.00;41.10
62575;DHT22;70119;45.638;11.714;2023-10-09T12:33:05;31.00;41.10
62575;DHT22;70119;45.638;11.714;2023-10-09T12:35:37;31.00;41.10
62575;DHT22;70119;45.638;11.714;2023-10-09T12:38:04;31.00;41.10
62575;DHT22;70119;45.638;11.714;2023-10-09T12:40:34;31.00;41.10
62575;DHT22;70119;45.638;11.714;2023-10-09T12:43:00;31.00;41.10
62575;DHT22;70119;45.638;11.714;2023-10-09T12:45:26;31.10;41.10
62575;DHT22;70119;45.638;11.714;2023-10-09T12:47:56;31.00;41.10
62575;DHT22;70119;45.638;11.714;2023-10-09T12:50:25;31.00;41.10
62575;DHT22;70119;45.638;11.714;2023-10-09T12:52:55;31.00;41.20
62575;DHT22;70119;45.638;11.714;2023-10-09T12:55:22;30.90;41.20
62575;DHT22;70119;45.638;11.714;2023-10-09T12:57:59;31.00;41.20
62575;DHT22;70119;45.638;11.714;2023-10-09T13:00:27;31.00;41.20
62575;DHT22;70119;45.638;11.714;2023-10-09T13:02:58;31.00;41.10
62575;DHT22;70119;45.638;11.714;2023-10-09T13:05:27;31.00;41.10
62575;DHT22;70119;45.638;11.714;2023-10-09T13:07:53;31.10;41.10
62575;DHT22;70119;45.638;11.714;2023-10-09T13:10:23;31.00;41.10
62575;DHT22;70119;45.638;11.714;2023-10-09T13:12:49;31.00;41.10
62575;DHT22;70119;45.638;11.714;2023-10-09T13:15:21;31.00;41.10
62575;DHT22;70119;45.638;11.714;2023-10-09T13:17:47;31.00;41.10
62575;DHT22;70119;45.638;11.714;2023-10-09T13:20:13;31.00;41.10
62575;DHT22;70119;45.638;11.714;2023-10-09T13:22:39;31.00;41.10
62575;DHT22;70119;45.638;11.714;2023-10-09T13:25:07;31.00;41.10
62575;DHT22;70119;45.638;11.714;2023-10-09T13:27:44;31.00;41.20
62575;DHT22;70119;45.638;11.714;2023-10-09T13:30:19;30.90;41.20
62575;DHT22;70119;45.638;11.714;2023-10-09T13:32:51;30.90;41.20
62575;DHT22;70119;45.638;11.714;2023-10-09T13:35:18;30.90;41.20
62575;DHT22;70119;45.638;11.714;2023-10-09T13:37:45;30.90;41.20
62575;DHT22;70119;45.638;11.714;2023-10-09T13:40:20;30.90;41.20
62575;DHT22;70119;45.638;11.714;2023-10-09T13:42:53;30.90;41.10
62575;DHT22;70119;45.638;11.714;2023-10-09T13:45:25;30.90;41.20
62575;DHT22;70119;45.638;11.714;2023-10-09T13:47:56;30.90;41.10
62575;DHT22;70119;45.638;11.714;2023-10-09T13:50:26;31.00;41.10
62575;DHT22;70119;45.638;11.714;2023-10-09T13:52:59;30.90;41.20
62575;DHT22;70119;45.638;11.714;2023-10-09T13:55:25;30.90;41.20
62575;DHT22;70119;45.638;11.714;2023-10-09T13:57:57;30.90;41.20
62575;DHT22;70119;45.638;11.714;2023-10-09T14:00:24;30.80;41.20
62575;DHT22;70119;45.638;11.714;2023-10-09T14:03:00;30.80;41.30
62575;DHT22;70119;45.638;11.714;2023-10-09T14:05:29;30.80;41.20
62575;DHT22;70119;45.638;11.714;2023-10-09T14:07:54;30.80;41.20
62575;DHT22;70119;45.638;11.714;2023-10-09T14:10:26;30.80;41.20
62575;DHT22;70119;45.638;11.714;2023-10-09T14:12:56;30.80;41.20
62575;DHT22;70119;45.638;11.714;2023-10-09T14:15:23;30.80;41.20
62575;DHT22;70119;45.638;11.714;2023-10-09T14:17:49;30.90;41.20
62575;DHT22;70119;45.638;11.714;2023-10-09T14:20:22;30.80;41.20
62575;DHT22;70119;45.638;11.714;2023-10-09T14:23:14;30.90;41.20
62575;DHT22;70119;45.638;11.714;2023-10-09T14:25:46;30.80;41.20
62575;DHT22;70119;45.638;11.714;2023-10-09T14:28:15;30.80;41.20
62575;DHT22;70119;45.638;11.714;2023-10-09T14:30:45;30.80;41.30
62575;DHT22;70119;45.638;11.714;2023-10-09T14:33:14;30.80;41.30
62575;DHT22;70119;45.638;11.714;2023-10-09T14:35:48;30.80;41.20
62575;DHT22;70119;45.638;11.714;2023-10-09T14:38:14;30.80;41.30
62575;DHT22;70119;45.638;11.714;2023-10-09T14:40:47;30.70;41.40
62575;DHT22;70119;45.638;11.714;2023-10-09T14:43:13;30.70;41.40
62575;DHT22;70119;45.638;11.714;2023-10-09T14:45:46;30.70;41.40
62575;DHT22;70119;45.638;11.714;2023-10-09T14:48:15;30.70;41.30
62575;DHT22;70119;45.638;11.714;2023-10-09T14:50:49;30.70;41.30
62575;DHT22;70119;45.638;11.714;2023-10-09T14:53:20;30.80;41.20
62575;DHT22;70119;45.638;11.714;2023-10-09T14:55:53;30.80;41.20
62575;DHT22;70119;45.638;11.714;2023-10-09T14:58:19;30.70;41.20
62575;DHT22;70119;45.638;11.714;2023-10-09T15:00:45;30.80;41.20
62575;DHT22;70119;45.638;11.714;2023-10-09T15:03:14;30.80;41.30
62575;DHT22;70119;45.638;11.714;2023-10-09T15:05:43;30.80;41.20
62575;DHT22;70119;45.638;11.714;2023-10-09T15:08:09;30.80;41.20
62575;DHT22;70119;45.638;11.714;2023-10-09T15:10:47;30.80;41.30
62575;DHT22;70119;45.638;11.714;2023-10-09T15:13:14;30.70;41.30
62575;DHT22;70119;45.638;11.714;2023-10-09T15:15:45;30.70;41.40
62575;DHT22;70119;45.638;11.714;2023-10-09T15:18:11;30.60;41.50
62575;DHT22;70119;45.638;11.714;2023-10-09T15:20:38;30.70;41.40
62575;DHT22;70119;45.638;11.714;2023-10-09T15:23:09;30.70;41.40
62575;DHT22;70119;45.638;11.714;2023-10-09T15:25:35;30.70;41.40
62575;DHT22;70119;45.638;11.714;2023-10-09T15:28:05;30.70;41.40
62575;DHT22;70119;45.638;11.714;2023-10-09T15:30:33;30.70;41.40
62575;DHT22;70119;45.638;11.714;2023-10-09T15:32:59;30.70;41.40
62575;DHT22;70119;45.638;11.714;2023-10-09T15:35:27;30.70;41.40
62575;DHT22;70119;45.638;11.714;2023-10-09T15:37:54;30.70;41.40
62575;DHT22;70119;45.638;11.714;2023-10-09T15:40:20;30.60;41.40
62575;DHT22;70119;45.638;11.714;2023-10-09T15:42:50;30.70;41.40
62575;DHT22;70119;45.638;11.714;2023-10-09T15:45:17;30.70;41.40
62575;DHT22;70119;45.638;11.714;2023-10-09T15:47:43;30.70;41.40
62575;DHT22;70119;45.638;11.714;2023-10-09T15:50:10;30.70;41.40
62575;DHT22;70119;45.638;11.714;2023-10-09T15:52:38;30.70;41.40
62575;DHT22;70119;45.638;11.714;2023-10-09T15:55:08;30.70;41.40
62575;DHT22;70119;45.638;11.714;2023-10-09T15:57:42;30.70;41.50
62575;DHT22;70119;45.638;11.714;2023-10-09T16:00:08;30.60;41.50
62575;DHT22;70119;45.638;11.714;2023-10-09T16:02:49;30.60;41.60
62575;DHT22;70119;45.638;11.714;2023-10-09T16:05:19;30.60;41.70
62575;DHT22;70119;45.638;11.714;2023-10-09T16:07:45;30.60;41.70
62575;DHT22;70119;45.638;11.714;2023-10-09T16:10:13;30.60;41.80
62575;DHT22;70119;45.638;11.714;2023-10-09T16:12:40;30.50;41.80
62575;DHT22;70119;45.638;11.714;2023-10-09T16:15:15;30.60;41.80
62575;DHT22;70119;45.638;11.714;2023-10-09T16:17:49;30.60;41.70
62575;DHT22;70119;45.638;11.714;2023-10-09T16:20:25;30.60;41.70
62575;DHT22;70119;45.638;11.714;2023-10-09T16:22:51;30.60;41.70
62575;DHT22;70119;45.638;11.714;2023-10-09T16:25:31;30.60;41.70